sensor_id;sensor_type;location;lat;lon;timestamp;P1;durP1;ratioP1;P2;durP2;ratioP2
50988;SDS011;37008;52.210;21.112;2023-04-15T00:01:07;17.00;;;8.35;;
50988;SDS011;37008;52.210;21.112;2023-04-15T00:03:34;10.20;;;7.53;;
50988;SDS011;37008;52.210;21.112;2023-04-15T00:06:00;11.73;;;7.82;;
50988;SDS011;37008;52.210;21.112;2023-04-15T00:08:25;9.35;;;7.80;;
50988;SDS011;37008;52.210;21.112;2023-04-15T00:10:51;12.30;;;9.10;;
50988;SDS011;37008;52.210;21.112;2023-04-15T00:13:17;11.13;;;8.35;;
50988;SDS011;37008;52.210;21.112;2023-04-15T00:15:42;10.00;;;8.18;;
50988;SDS011;37008;52.210;21.112;2023-04-15T00:18:08;10.80;;;7.93;;
50988;SDS011;37008;52.210;21.112;2023-04-15T00:20:34;9.93;;;7.30;;
50988;SDS011;37008;52.210;21.112;2023-04-15T00:23:01;13.70;;;8.02;;
50988;SDS011;37008;52.210;21.112;2023-04-15T00:25:27;10.23;;;7.40;;
50988;SDS011;37008;52.210;21.112;2023-04-15T00:27:53;11.15;;;7.65;;
50988;SDS011;37008;52.210;21.112;2023-04-15T00:30:19;10.80;;;8.55;;
50988;SDS011;37008;52.210;21.112;2023-04-15T00:32:44;10.07;;;8.13;;
50988;SDS011;37008;52.210;21.112;2023-04-15T00:35:10;12.18;;;8.60;;
50988;SDS011;37008;52.210;21.112;2023-04-15T00:37:36;11.82;;;8.35;;
50988;SDS011;37008;52.210;21.112;2023-04-15T00:40:02;10.55;;;8.27;;
50988;SDS011;37008;52.210;21.112;2023-04-15T00:42:30;11.40;;;9.40;;
50988;SDS011;37008;52.210;21.112;2023-04-15T00:44:56;10.00;;;8.55;;
50988;SDS011;37008;52.210;21.112;2023-04-15T00:47:21;10.05;;;8.45;;
50988;SDS011;37008;52.210;21.112;2023-04-15T00:49:47;11.60;;;9.00;;
50988;SDS011;37008;52.210;21.112;2023-04-15T00:52:13;12.02;;;9.15;;
50988;SDS011;37008;52.210;21.112;2023-04-15T00:54:38;9.85;;;8.52;;
50988;SDS011;37008;52.210;21.112;2023-04-15T00:57:05;11.40;;;9.02;;
50988;SDS011;37008;52.210;21.112;2023-04-15T00:59:32;12.05;;;8.80;;
50988;SDS011;37008;52.210;21.112;2023-04-15T01:01:58;9.55;;;8.25;;
50988;SDS011;37008;52.210;21.112;2023-04-15T01:04:24;12.13;;;8.40;;
50988;SDS011;37008;52.210;21.112;2023-04-15T01:06:50;9.70;;;8.63;;
50988;SDS011;37008;52.210;21.112;2023-04-15T01:09:16;9.27;;;8.35;;
50988;SDS011;37008;52.210;21.112;2023-04-15T01:11:42;11.18;;;9.48;;
50988;SDS011;37008;52.210;21.112;2023-04-15T01:14:08;12.35;;;8.93;;
50988;SDS011;37008;52.210;21.112;2023-04-15T01:16:35;11.65;;;9.65;;
50988;SDS011;37008;52.210;21.112;2023-04-15T01:19:04;13.10;;;9.77;;
50988;SDS011;37008;52.210;21.112;2023-04-15T01:21:33;12.45;;;10.40;;
50988;SDS011;37008;52.210;21.112;2023-04-15T01:24:01;11.05;;;9.82;;
50988;SDS011;37008;52.210;21.112;2023-04-15T01:26:32;13.30;;;11.02;;
50988;SDS011;37008;52.210;21.112;2023-04-15T01:28:58;12.50;;;10.60;;
50988;SDS011;37008;52.210;21.112;2023-04-15T01:31:24;11.98;;;10.45;;
50988;SDS011;37008;52.210;21.112;2023-04-15T01:33:49;12.45;;;10.70;;
50988;SDS011;37008;52.210;21.112;2023-04-15T01:36:15;12.15;;;9.90;;
50988;SDS011;37008;52.210;21.112;2023-04-15T01:38:41;12.68;;;10.45;;
50988;SDS011;37008;52.210;21.112;2023-04-15T01:41:06;14.93;;;10.52;;
50988;SDS011;37008;52.210;21.112;2023-04-15T01:43:32;12.45;;;11.00;;
50988;SDS011;37008;52.210;21.112;2023-04-15T01:45:58;13.20;;;11.10;;
50988;SDS011;37008;52.210;21.112;2023-04-15T01:48:24;13.68;;;11.13;;
50988;SDS011;37008;52.210;21.112;2023-04-15T01:50:51;13.32;;;11.50;;
50988;SDS011;37008;52.210;21.112;2023-04-15T01:53:18;19.15;;;12.15;;
50988;SDS011;37008;52.210;21.112;2023-04-15T01:55:43;14.38;;;12.45;;
50988;SDS011;37008;52.210;21.112;2023-04-15T01:58:09;15.68;;;13.07;;
50988;SDS011;37008;52.210;21.112;2023-04-15T02:00:35;17.08;;;12.32;;
50988;SDS011;37008;52.210;21.112;2023-04-15T02:03:00;16.83;;;12.85;;
50988;SDS011;37008;52.210;21.112;2023-04-15T02:05:26;16.30;;;12.80;;
50988;SDS011;37008;52.210;21.112;2023-04-15T02:07:52;19.10;;;12.80;;
50988;SDS011;37008;52.210;21.112;2023-04-15T02:10:18;18.65;;;13.02;;
50988;SDS011;37008;52.210;21.112;2023-04-15T02:12:44;16.55;;;12.77;;
50988;SDS011;37008;52.210;21.112;2023-04-15T02:15:09;17.08;;;12.38;;
50988;SDS011;37008;52.210;21.112;2023-04-15T02:17:35;20.95;;;13.07;;
50988;SDS011;37008;52.210;21.112;2023-04-15T02:20:02;17.02;;;12.45;;
50988;SDS011;37008;52.210;21.112;2023-04-15T02:22:32;13.98;;;11.85;;
50988;SDS011;37008;52.210;21.112;2023-04-15T02:24:58;16.05;;;14.10;;
50988;SDS011;37008;52.210;21.112;2023-04-15T02:27:24;18.08;;;14.23;;
50988;SDS011;37008;52.210;21.112;2023-04-15T02:29:50;15.07;;;12.98;;
50988;SDS011;37008;52.210;21.112;2023-04-15T02:32:16;15.48;;;12.70;;
50988;SDS011;37008;52.210;21.112;2023-04-15T02:34:41;13.57;;;11.93;;
50988;SDS011;37008;52.210;21.112;2023-04-15T02:37:11;15.85;;;13.05;;
50988;SDS011;37008;52.210;21.112;2023-04-15T02:39:37;15.20;;;13.20;;
50988;SDS011;37008;52.210;21.112;2023-04-15T02:42:03;13.52;;;11.80;;
50988;SDS011;37008;52.210;21.112;2023-04-15T02:44:30;15.15;;;12.57;;
50988;SDS011;37008;52.210;21.112;2023-04-15T02:46:56;16.50;;;12.70;;
50988;SDS011;37008;52.210;21.112;2023-04-15T02:49:23;13.45;;;11.90;;
50988;SDS011;37008;52.210;21.112;2023-04-15T02:51:49;12.70;;;11.32;;
50988;SDS011;37008;52.210;21.112;2023-04-15T02:54:18;15.32;;;11.57;;
50988;SDS011;37008;52.210;21.112;2023-04-15T02:56:45;14.65;;;11.18;;
50988;SDS011;37008;52.210;21.112;2023-04-15T02:59:13;13.88;;;12.35;;
50988;SDS011;37008;52.210;21.112;2023-04-15T03:01:39;13.07;;;11.65;;
50988;SDS011;37008;52.210;21.112;2023-04-15T03:04:05;19.90;;;12.50;;
50988;SDS011;37008;52.210;21.112;2023-04-15T03:06:32;17.10;;;12.60;;
50988;SDS011;37008;52.210;21.112;2023-04-15T03:08:58;13.88;;;12.00;;
50988;SDS011;37008;52.210;21.112;2023-04-15T03:11:24;14.35;;;12.73;;
50988;SDS011;37008;52.210;21.112;2023-04-15T03:13:51;14.95;;;13.35;;
50988;SDS011;37008;52.210;21.112;2023-04-15T03:16:17;16.52;;;12.90;;
50988;SDS011;37008;52.210;21.112;2023-04-15T03:18:42;13.88;;;12.10;;
50988;SDS011;37008;52.210;21.112;2023-04-15T03:21:08;16.90;;;12.52;;
50988;SDS011;37008;52.210;21.112;2023-04-15T03:23:33;16.38;;;13.57;;
50988;SDS011;37008;52.210;21.112;2023-04-15T03:26:02;17.90;;;13.43;;
50988;SDS011;37008;52.210;21.112;2023-04-15T03:28:28;16.90;;;13.60;;
50988;SDS011;37008;52.210;21.112;2023-04-15T03:30:54;15.25;;;13.65;;
50988;SDS011;37008;52.210;21.112;2023-04-15T03:33:20;13.95;;;11.10;;
50988;SDS011;37008;52.210;21.112;2023-04-15T03:35:45;15.27;;;12.45;;
50988;SDS011;37008;52.210;21.112;2023-04-15T03:38:11;16.60;;;12.30;;
50988;SDS011;37008;52.210;21.112;2023-04-15T03:40:37;18.63;;;12.05;;
50988;SDS011;37008;52.210;21.112;2023-04-15T03:43:05;13.90;;;12.32;;
50988;SDS011;37008;52.210;21.112;2023-04-15T03:45:30;14.98;;;12.73;;
50988;SDS011;37008;52.210;21.112;2023-04-15T03:47:56;15.48;;;12.93;;
50988;SDS011;37008;52.210;21.112;2023-04-15T03:50:22;13.95;;;12.02;;
50988;SDS011;37008;52.210;21.112;2023-04-15T03:52:47;14.93;;;12.70;;
50988;SDS011;37008;52.210;21.112;2023-04-15T03:55:13;16.85;;;12.32;;
50988;SDS011;37008;52.210;21.112;2023-04-15T03:57:39;13.88;;;11.35;;
50988;SDS011;37008;52.210;21.112;2023-04-15T04:00:05;14.70;;;11.88;;
50988;SDS011;37008;52.210;21.112;2023-04-15T04:02:34;17.00;;;12.93;;
50988;SDS011;37008;52.210;21.112;2023-04-15T04:05:00;16.50;;;12.35;;
50988;SDS011;37008;52.210;21.112;2023-04-15T04:07:26;13.70;;;11.88;;
50988;SDS011;37008;52.210;21.112;2023-04-15T04:09:52;16.35;;;12.55;;
50988;SDS011;37008;52.210;21.112;2023-04-15T04:12:17;14.70;;;13.10;;
50988;SDS011;37008;52.210;21.112;2023-04-15T04:14:43;17.30;;;13.52;;
50988;SDS011;37008;52.210;21.112;2023-04-15T04:17:08;15.88;;;13.85;;
50988;SDS011;37008;52.210;21.112;2023-04-15T04:19:34;18.15;;;14.07;;
50988;SDS011;37008;52.210;21.112;2023-04-15T04:22:00;17.13;;;13.63;;
50988;SDS011;37008;52.210;21.112;2023-04-15T04:24:25;18.48;;;14.45;;
50988;SDS011;37008;52.210;21.112;2023-04-15T04:26:51;16.75;;;14.40;;
50988;SDS011;37008;52.210;21.112;2023-04-15T04:29:16;17.58;;;13.35;;
50988;SDS011;37008;52.210;21.112;2023-04-15T04:31:42;17.42;;;15.52;;
50988;SDS011;37008;52.210;21.112;2023-04-15T04:34:08;20.52;;;16.02;;
50988;SDS011;37008;52.210;21.112;2023-04-15T04:36:33;18.85;;;13.82;;
50988;SDS011;37008;52.210;21.112;2023-04-15T04:38:59;24.33;;;16.00;;
50988;SDS011;37008;52.210;21.112;2023-04-15T04:41:25;18.42;;;16.48;;
50988;SDS011;37008;52.210;21.112;2023-04-15T04:43:51;17.88;;;14.88;;
50988;SDS011;37008;52.210;21.112;2023-04-15T04:46:16;19.42;;;16.02;;
50988;SDS011;37008;52.210;21.112;2023-04-15T04:48:42;19.48;;;16.08;;
50988;SDS011;37008;52.210;21.112;2023-04-15T04:51:07;19.13;;;16.27;;
50988;SDS011;37008;52.210;21.112;2023-04-15T04:53:33;21.50;;;17.38;;
50988;SDS011;37008;52.210;21.112;2023-04-15T04:55:59;21.92;;;17.13;;
50988;SDS011;37008;52.210;21.112;2023-04-15T04:58:24;22.58;;;16.17;;
50988;SDS011;37008;52.210;21.112;2023-04-15T05:00:50;23.25;;;17.02;;
50988;SDS011;37008;52.210;21.112;2023-04-15T05:03:16;17.92;;;14.13;;
50988;SDS011;37008;52.210;21.112;2023-04-15T05:05:41;20.55;;;16.55;;
50988;SDS011;37008;52.210;21.112;2023-04-15T05:08:07;19.27;;;16.45;;
50988;SDS011;37008;52.210;21.112;2023-04-15T05:10:33;17.83;;;15.38;;
50988;SDS011;37008;52.210;21.112;2023-04-15T05:12:58;18.25;;;15.20;;
50988;SDS011;37008;52.210;21.112;2023-04-15T05:15:24;15.85;;;14.05;;
50988;SDS011;37008;52.210;21.112;2023-04-15T05:17:49;21.00;;;15.68;;
50988;SDS011;37008;52.210;21.112;2023-04-15T05:20:15;19.85;;;15.55;;
50988;SDS011;37008;52.210;21.112;2023-04-15T05:22:41;16.55;;;14.35;;
50988;SDS011;37008;52.210;21.112;2023-04-15T05:25:07;18.17;;;15.68;;
50988;SDS011;37008;52.210;21.112;2023-04-15T05:27:32;19.02;;;15.02;;
50988;SDS011;37008;52.210;21.112;2023-04-15T05:29:58;20.90;;;15.77;;
50988;SDS011;37008;52.210;21.112;2023-04-15T05:32:24;18.48;;;15.05;;
50988;SDS011;37008;52.210;21.112;2023-04-15T05:34:50;21.50;;;16.50;;
50988;SDS011;37008;52.210;21.112;2023-04-15T05:37:16;19.42;;;14.90;;
50988;SDS011;37008;52.210;21.112;2023-04-15T05:39:41;18.77;;;14.68;;
50988;SDS011;37008;52.210;21.112;2023-04-15T05:42:07;20.95;;;15.07;;
50988;SDS011;37008;52.210;21.112;2023-04-15T05:44:33;16.60;;;13.48;;
50988;SDS011;37008;52.210;21.112;2023-04-15T05:46:58;20.90;;;14.60;;
50988;SDS011;37008;52.210;21.112;2023-04-15T05:49:24;14.15;;;12.43;;
50988;SDS011;37008;52.210;21.112;2023-04-15T05:51:50;17.85;;;13.98;;
50988;SDS011;37008;52.210;21.112;2023-04-15T05:54:15;17.45;;;13.18;;
50988;SDS011;37008;52.210;21.112;2023-04-15T05:56:42;15.05;;;12.30;;
50988;SDS011;37008;52.210;21.112;2023-04-15T05:59:08;17.40;;;13.82;;
50988;SDS011;37008;52.210;21.112;2023-04-15T06:01:33;15.85;;;13.60;;
50988;SDS011;37008;52.210;21.112;2023-04-15T06:03:59;12.77;;;11.48;;
50988;SDS011;37008;52.210;21.112;2023-04-15T06:06:25;16.42;;;14.40;;
50988;SDS011;37008;52.210;21.112;2023-04-15T06:08:51;16.77;;;13.63;;
50988;SDS011;37008;52.210;21.112;2023-04-15T06:11:17;16.08;;;14.02;;
50988;SDS011;37008;52.210;21.112;2023-04-15T06:13:45;16.75;;;14.45;;
50988;SDS011;37008;52.210;21.112;2023-04-15T06:16:10;15.98;;;14.27;;
50988;SDS011;37008;52.210;21.112;2023-04-15T06:18:36;15.88;;;14.13;;
50988;SDS011;37008;52.210;21.112;2023-04-15T06:21:01;15.90;;;13.20;;
50988;SDS011;37008;52.210;21.112;2023-04-15T06:23:27;20.83;;;17.52;;
50988;SDS011;37008;52.210;21.112;2023-04-15T06:25:53;41.47;;;35.90;;
50988;SDS011;37008;52.210;21.112;2023-04-15T06:28:18;23.80;;;20.38;;
50988;SDS011;37008;52.210;21.112;2023-04-15T06:30:44;16.55;;;14.15;;
50988;SDS011;37008;52.210;21.112;2023-04-15T06:33:09;27.30;;;23.15;;
50988;SDS011;37008;52.210;21.112;2023-04-15T06:35:35;25.95;;;21.33;;
50988;SDS011;37008;52.210;21.112;2023-04-15T06:38:01;21.85;;;18.55;;
50988;SDS011;37008;52.210;21.112;2023-04-15T06:40:26;35.97;;;29.58;;
50988;SDS011;37008;52.210;21.112;2023-04-15T06:42:52;19.48;;;17.52;;
50988;SDS011;37008;52.210;21.112;2023-04-15T06:45:18;16.73;;;12.18;;
50988;SDS011;37008;52.210;21.112;2023-04-15T06:47:43;16.77;;;13.30;;
50988;SDS011;37008;52.210;21.112;2023-04-15T06:50:09;15.82;;;12.57;;
50988;SDS011;37008;52.210;21.112;2023-04-15T06:52:35;13.35;;;11.75;;
50988;SDS011;37008;52.210;21.112;2023-04-15T06:55:01;18.80;;;12.52;;
50988;SDS011;37008;52.210;21.112;2023-04-15T06:57:26;15.80;;;12.18;;
50988;SDS011;37008;52.210;21.112;2023-04-15T06:59:53;15.57;;;11.93;;
50988;SDS011;37008;52.210;21.112;2023-04-15T07:02:19;28.08;;;17.80;;
50988;SDS011;37008;52.210;21.112;2023-04-15T07:04:44;23.40;;;15.82;;
50988;SDS011;37008;52.210;21.112;2023-04-15T07:07:10;14.98;;;12.80;;
50988;SDS011;37008;52.210;21.112;2023-04-15T07:09:36;14.95;;;12.25;;
50988;SDS011;37008;52.210;21.112;2023-04-15T07:12:02;15.55;;;11.38;;
50988;SDS011;37008;52.210;21.112;2023-04-15T07:14:28;14.45;;;12.82;;
50988;SDS011;37008;52.210;21.112;2023-04-15T07:16:54;13.00;;;11.35;;
50988;SDS011;37008;52.210;21.112;2023-04-15T07:19:20;15.00;;;11.80;;
50988;SDS011;37008;52.210;21.112;2023-04-15T07:21:46;11.73;;;8.73;;
50988;SDS011;37008;52.210;21.112;2023-04-15T07:24:11;11.68;;;9.10;;
50988;SDS011;37008;52.210;21.112;2023-04-15T07:26:40;12.25;;;9.45;;
50988;SDS011;37008;52.210;21.112;2023-04-15T07:29:06;10.57;;;9.13;;
50988;SDS011;37008;52.210;21.112;2023-04-15T07:31:32;11.48;;;9.98;;
50988;SDS011;37008;52.210;21.112;2023-04-15T07:33:57;10.70;;;8.60;;
50988;SDS011;37008;52.210;21.112;2023-04-15T07:36:23;10.68;;;9.10;;
50988;SDS011;37008;52.210;21.112;2023-04-15T07:38:49;9.43;;;8.25;;
50988;SDS011;37008;52.210;21.112;2023-04-15T07:41:15;12.60;;;9.40;;
50988;SDS011;37008;52.210;21.112;2023-04-15T07:43:40;12.07;;;8.13;;
50988;SDS011;37008;52.210;21.112;2023-04-15T07:46:07;9.05;;;8.15;;
50988;SDS011;37008;52.210;21.112;2023-04-15T07:48:32;14.52;;;9.23;;
50988;SDS011;37008;52.210;21.112;2023-04-15T07:50:58;9.88;;;8.07;;
50988;SDS011;37008;52.210;21.112;2023-04-15T07:53:24;11.02;;;8.48;;
50988;SDS011;37008;52.210;21.112;2023-04-15T07:55:50;9.15;;;7.95;;
50988;SDS011;37008;52.210;21.112;2023-04-15T07:58:16;9.15;;;7.90;;
50988;SDS011;37008;52.210;21.112;2023-04-15T08:00:41;10.23;;;8.48;;
50988;SDS011;37008;52.210;21.112;2023-04-15T08:03:07;8.18;;;7.25;;
50988;SDS011;37008;52.210;21.112;2023-04-15T08:05:33;9.18;;;8.05;;
50988;SDS011;37008;52.210;21.112;2023-04-15T08:07:58;8.85;;;7.95;;
50988;SDS011;37008;52.210;21.112;2023-04-15T08:10:24;8.55;;;7.47;;
50988;SDS011;37008;52.210;21.112;2023-04-15T08:12:49;12.73;;;8.70;;
50988;SDS011;37008;52.210;21.112;2023-04-15T08:15:18;17.15;;;12.93;;
50988;SDS011;37008;52.210;21.112;2023-04-15T08:17:44;13.95;;;10.10;;
50988;SDS011;37008;52.210;21.112;2023-04-15T08:20:10;14.77;;;11.65;;
50988;SDS011;37008;52.210;21.112;2023-04-15T08:22:37;18.27;;;11.90;;
50988;SDS011;37008;52.210;21.112;2023-04-15T08:25:03;13.18;;;9.88;;
50988;SDS011;37008;52.210;21.112;2023-04-15T08:27:29;6.90;;;6.20;;
50988;SDS011;37008;52.210;21.112;2023-04-15T08:29:55;8.35;;;6.35;;
50988;SDS011;37008;52.210;21.112;2023-04-15T08:32:21;7.25;;;5.88;;
50988;SDS011;37008;52.210;21.112;2023-04-15T08:34:46;8.93;;;5.35;;
50988;SDS011;37008;52.210;21.112;2023-04-15T08:37:12;7.45;;;6.18;;
50988;SDS011;37008;52.210;21.112;2023-04-15T08:39:38;10.20;;;5.95;;
50988;SDS011;37008;52.210;21.112;2023-04-15T08:42:04;6.28;;;5.30;;
50988;SDS011;37008;52.210;21.112;2023-04-15T08:44:35;5.50;;;4.93;;
50988;SDS011;37008;52.210;21.112;2023-04-15T08:47:02;7.80;;;6.10;;
50988;SDS011;37008;52.210;21.112;2023-04-15T08:49:31;6.95;;;5.70;;
50988;SDS011;37008;52.210;21.112;2023-04-15T08:51:57;7.72;;;5.80;;
50988;SDS011;37008;52.210;21.112;2023-04-15T08:54:24;7.88;;;5.78;;
50988;SDS011;37008;52.210;21.112;2023-04-15T08:56:51;8.98;;;5.93;;
50988;SDS011;37008;52.210;21.112;2023-04-15T08:59:18;7.43;;;5.00;;
50988;SDS011;37008;52.210;21.112;2023-04-15T09:01:45;7.05;;;5.00;;
50988;SDS011;37008;52.210;21.112;2023-04-15T09:04:12;5.65;;;4.40;;
50988;SDS011;37008;52.210;21.112;2023-04-15T09:06:39;11.50;;;5.68;;
50988;SDS011;37008;52.210;21.112;2023-04-15T09:09:05;6.85;;;5.00;;
50988;SDS011;37008;52.210;21.112;2023-04-15T09:11:31;6.32;;;5.15;;
50988;SDS011;37008;52.210;21.112;2023-04-15T09:13:56;7.90;;;4.45;;
50988;SDS011;37008;52.210;21.112;2023-04-15T09:16:22;7.30;;;4.90;;
50988;SDS011;37008;52.210;21.112;2023-04-15T09:18:48;5.90;;;5.22;;
50988;SDS011;37008;52.210;21.112;2023-04-15T09:21:15;5.30;;;4.63;;
50988;SDS011;37008;52.210;21.112;2023-04-15T09:23:53;7.80;;;5.88;;
50988;SDS011;37008;52.210;21.112;2023-04-15T09:26:33;5.70;;;4.90;;
50988;SDS011;37008;52.210;21.112;2023-04-15T09:29:07;5.60;;;4.63;;
50988;SDS011;37008;52.210;21.112;2023-04-15T09:31:35;6.65;;;4.25;;
50988;SDS011;37008;52.210;21.112;2023-04-15T09:34:01;7.22;;;4.95;;
50988;SDS011;37008;52.210;21.112;2023-04-15T09:36:26;8.75;;;5.38;;
50988;SDS011;37008;52.210;21.112;2023-04-15T09:38:57;5.47;;;4.75;;
50988;SDS011;37008;52.210;21.112;2023-04-15T09:41:23;5.53;;;4.78;;
50988;SDS011;37008;52.210;21.112;2023-04-15T09:43:50;5.40;;;4.82;;
50988;SDS011;37008;52.210;21.112;2023-04-15T09:46:15;4.80;;;4.25;;
50988;SDS011;37008;52.210;21.112;2023-04-15T09:48:41;7.25;;;5.03;;
50988;SDS011;37008;52.210;21.112;2023-04-15T09:51:07;7.97;;;4.65;;
50988;SDS011;37008;52.210;21.112;2023-04-15T09:53:33;4.60;;;3.75;;
50988;SDS011;37008;52.210;21.112;2023-04-15T09:56:00;4.80;;;3.83;;
50988;SDS011;37008;52.210;21.112;2023-04-15T09:58:33;4.50;;;4.03;;
50988;SDS011;37008;52.210;21.112;2023-04-15T10:01:03;4.32;;;3.92;;
50988;SDS011;37008;52.210;21.112;2023-04-15T10:03:30;5.18;;;4.25;;
50988;SDS011;37008;52.210;21.112;2023-04-15T10:05:59;5.57;;;4.07;;
50988;SDS011;37008;52.210;21.112;2023-04-15T10:08:27;5.22;;;4.30;;
50988;SDS011;37008;52.210;21.112;2023-04-15T10:10:54;7.50;;;4.80;;
50988;SDS011;37008;52.210;21.112;2023-04-15T10:13:25;4.82;;;4.05;;
50988;SDS011;37008;52.210;21.112;2023-04-15T10:16:14;5.35;;;3.70;;
50988;SDS011;37008;52.210;21.112;2023-04-15T10:18:43;4.68;;;3.70;;
50988;SDS011;37008;52.210;21.112;2023-04-15T10:21:14;5.47;;;3.88;;
50988;SDS011;37008;52.210;21.112;2023-04-15T10:23:42;4.88;;;3.50;;
50988;SDS011;37008;52.210;21.112;2023-04-15T10:26:12;6.93;;;3.65;;
50988;SDS011;37008;52.210;21.112;2023-04-15T10:28:41;5.43;;;3.35;;
50988;SDS011;37008;52.210;21.112;2023-04-15T10:31:07;3.28;;;2.85;;
50988;SDS011;37008;52.210;21.112;2023-04-15T10:33:38;6.38;;;2.90;;
50988;SDS011;37008;52.210;21.112;2023-04-15T10:36:06;3.72;;;3.20;;
50988;SDS011;37008;52.210;21.112;2023-04-15T10:46:35;7.53;;;4.18;;
50988;SDS011;37008;52.210;21.112;2023-04-15T10:49:06;7.38;;;3.97;;
50988;SDS011;37008;52.210;21.112;2023-04-15T10:51:44;4.55;;;3.47;;
50988;SDS011;37008;52.210;21.112;2023-04-15T10:54:17;4.32;;;2.70;;
50988;SDS011;37008;52.210;21.112;2023-04-15T11:00:16;3.33;;;3.00;;
50988;SDS011;37008;52.210;21.112;2023-04-15T11:02:42;4.20;;;3.30;;
50988;SDS011;37008;52.210;21.112;2023-04-15T11:05:15;3.35;;;3.05;;
50988;SDS011;37008;52.210;21.112;2023-04-15T11:12:41;5.93;;;2.50;;
50988;SDS011;37008;52.210;21.112;2023-04-15T11:18:16;3.60;;;2.78;;
50988;SDS011;37008;52.210;21.112;2023-04-15T11:21:02;7.47;;;3.40;;
50988;SDS011;37008;52.210;21.112;2023-04-15T11:26:03;3.88;;;3.13;;
50988;SDS011;37008;52.210;21.112;2023-04-15T11:28:33;3.03;;;2.60;;
50988;SDS011;37008;52.210;21.112;2023-04-15T11:31:06;5.90;;;2.83;;
50988;SDS011;37008;52.210;21.112;2023-04-15T11:33:32;5.72;;;3.00;;
50988;SDS011;37008;52.210;21.112;2023-04-15T11:35:58;5.00;;;3.20;;
50988;SDS011;37008;52.210;21.112;2023-04-15T11:38:24;5.38;;;3.60;;
50988;SDS011;37008;52.210;21.112;2023-04-15T11:40:50;10.88;;;4.50;;
50988;SDS011;37008;52.210;21.112;2023-04-15T11:43:17;6.60;;;3.67;;
50988;SDS011;37008;52.210;21.112;2023-04-15T11:48:16;4.20;;;3.30;;
50988;SDS011;37008;52.210;21.112;2023-04-15T11:50:43;8.18;;;3.60;;
50988;SDS011;37008;52.210;21.112;2023-04-15T11:53:10;13.85;;;3.67;;
50988;SDS011;37008;52.210;21.112;2023-04-15T11:55:55;4.47;;;3.22;;
50988;SDS011;37008;52.210;21.112;2023-04-15T11:58:22;6.43;;;3.85;;
50988;SDS011;37008;52.210;21.112;2023-04-15T12:01:06;5.68;;;3.70;;
50988;SDS011;37008;52.210;21.112;2023-04-15T12:13:56;4.63;;;3.65;;
50988;SDS011;37008;52.210;21.112;2023-04-15T12:16:26;5.47;;;3.17;;
50988;SDS011;37008;52.210;21.112;2023-04-15T12:18:53;5.28;;;3.60;;
50988;SDS011;37008;52.210;21.112;2023-04-15T12:21:26;5.82;;;3.78;;
50988;SDS011;37008;52.210;21.112;2023-04-15T12:24:00;6.20;;;3.80;;
50988;SDS011;37008;52.210;21.112;2023-04-15T12:26:28;5.63;;;3.72;;
50988;SDS011;37008;52.210;21.112;2023-04-15T12:29:00;4.93;;;3.10;;
50988;SDS011;37008;52.210;21.112;2023-04-15T12:31:26;5.18;;;3.35;;
50988;SDS011;37008;52.210;21.112;2023-04-15T12:33:56;5.72;;;3.30;;
50988;SDS011;37008;52.210;21.112;2023-04-15T12:36:22;3.80;;;3.13;;
50988;SDS011;37008;52.210;21.112;2023-04-15T12:38:48;20.38;;;3.80;;
50988;SDS011;37008;52.210;21.112;2023-04-15T12:41:15;10.38;;;4.30;;
50988;SDS011;37008;52.210;21.112;2023-04-15T12:43:40;9.13;;;4.65;;
50988;SDS011;37008;52.210;21.112;2023-04-15T12:46:08;6.50;;;3.58;;
50988;SDS011;37008;52.210;21.112;2023-04-15T12:48:34;5.65;;;3.38;;
50988;SDS011;37008;52.210;21.112;2023-04-15T12:50:59;5.25;;;3.40;;
50988;SDS011;37008;52.210;21.112;2023-04-15T12:53:26;6.50;;;3.00;;
50988;SDS011;37008;52.210;21.112;2023-04-15T12:55:52;4.40;;;3.20;;
50988;SDS011;37008;52.210;21.112;2023-04-15T12:58:18;4.50;;;2.83;;
50988;SDS011;37008;52.210;21.112;2023-04-15T13:00:43;5.53;;;2.92;;
50988;SDS011;37008;52.210;21.112;2023-04-15T13:03:09;5.13;;;3.17;;
50988;SDS011;37008;52.210;21.112;2023-04-15T13:05:34;4.00;;;2.65;;
50988;SDS011;37008;52.210;21.112;2023-04-15T13:08:01;3.90;;;2.65;;
50988;SDS011;37008;52.210;21.112;2023-04-15T13:10:28;3.78;;;2.72;;
50988;SDS011;37008;52.210;21.112;2023-04-15T13:12:53;3.83;;;2.55;;
50988;SDS011;37008;52.210;21.112;2023-04-15T13:15:21;5.63;;;2.92;;
50988;SDS011;37008;52.210;21.112;2023-04-15T13:17:48;4.90;;;2.45;;
50988;SDS011;37008;52.210;21.112;2023-04-15T13:20:14;3.50;;;2.67;;
50988;SDS011;37008;52.210;21.112;2023-04-15T13:22:39;4.28;;;2.30;;
50988;SDS011;37008;52.210;21.112;2023-04-15T13:25:05;3.50;;;2.80;;
50988;SDS011;37008;52.210;21.112;2023-04-15T13:27:31;4.70;;;2.97;;
50988;SDS011;37008;52.210;21.112;2023-04-15T13:29:58;2.83;;;2.03;;
50988;SDS011;37008;52.210;21.112;2023-04-15T13:32:24;3.28;;;2.17;;
50988;SDS011;37008;52.210;21.112;2023-04-15T13:34:50;3.40;;;2.28;;
50988;SDS011;37008;52.210;21.112;2023-04-15T13:37:16;2.88;;;1.95;;
50988;SDS011;37008;52.210;21.112;2023-04-15T13:39:41;2.70;;;2.17;;
50988;SDS011;37008;52.210;21.112;2023-04-15T13:42:07;4.75;;;2.55;;
50988;SDS011;37008;52.210;21.112;2023-04-15T13:44:33;7.43;;;2.60;;
50988;SDS011;37008;52.210;21.112;2023-04-15T13:46:59;3.85;;;1.92;;
50988;SDS011;37008;52.210;21.112;2023-04-15T13:49:25;2.65;;;1.95;;
50988;SDS011;37008;52.210;21.112;2023-04-15T13:51:51;3.38;;;2.00;;
50988;SDS011;37008;52.210;21.112;2023-04-15T13:54:22;2.70;;;1.50;;
50988;SDS011;37008;52.210;21.112;2023-04-15T13:56:48;5.35;;;1.85;;
50988;SDS011;37008;52.210;21.112;2023-04-15T13:59:13;4.53;;;2.40;;
50988;SDS011;37008;52.210;21.112;2023-04-15T14:01:39;3.55;;;2.15;;
50988;SDS011;37008;52.210;21.112;2023-04-15T14:04:05;4.40;;;2.30;;
50988;SDS011;37008;52.210;21.112;2023-04-15T14:06:32;2.97;;;2.05;;
50988;SDS011;37008;52.210;21.112;2023-04-15T14:08:57;4.53;;;2.30;;
50988;SDS011;37008;52.210;21.112;2023-04-15T14:11:23;1.92;;;1.42;;
50988;SDS011;37008;52.210;21.112;2023-04-15T14:13:48;3.45;;;1.77;;
50988;SDS011;37008;52.210;21.112;2023-04-15T14:16:15;2.70;;;1.80;;
50988;SDS011;37008;52.210;21.112;2023-04-15T14:18:41;5.35;;;2.03;;
50988;SDS011;37008;52.210;21.112;2023-04-15T14:21:08;2.75;;;1.58;;
50988;SDS011;37008;52.210;21.112;2023-04-15T14:23:33;2.30;;;1.58;;
50988;SDS011;37008;52.210;21.112;2023-04-15T14:25:59;2.00;;;1.60;;
50988;SDS011;37008;52.210;21.112;2023-04-15T14:28:25;2.17;;;1.30;;
50988;SDS011;37008;52.210;21.112;2023-04-15T14:30:50;2.33;;;1.40;;
50988;SDS011;37008;52.210;21.112;2023-04-15T14:33:16;1.52;;;1.02;;
50988;SDS011;37008;52.210;21.112;2023-04-15T14:35:41;1.42;;;1.10;;
50988;SDS011;37008;52.210;21.112;2023-04-15T14:38:07;1.92;;;1.40;;
50988;SDS011;37008;52.210;21.112;2023-04-15T14:40:34;2.10;;;1.40;;
50988;SDS011;37008;52.210;21.112;2023-04-15T14:43:00;4.18;;;1.40;;
50988;SDS011;37008;52.210;21.112;2023-04-15T14:45:26;2.00;;;1.33;;
50988;SDS011;37008;52.210;21.112;2023-04-15T14:47:53;2.40;;;1.65;;
50988;SDS011;37008;52.210;21.112;2023-04-15T14:50:18;2.40;;;1.80;;
50988;SDS011;37008;52.210;21.112;2023-04-15T14:52:44;4.32;;;1.70;;